sensor_id;sensor_type;location;lat;lon;timestamp;temperature;humidity
21759;DHT22;11041;50.854;20.580;2023-07-31T00:01:19;17.10;99.90
21759;DHT22;11041;50.854;20.580;2023-07-31T00:03:46;17.10;99.90
21759;DHT22;11041;50.854;20.580;2023-07-31T00:06:13;17.10;99.90
21759;DHT22;11041;50.854;20.580;2023-07-31T00:08:39;17.00;99.90
21759;DHT22;11041;50.854;20.580;2023-07-31T00:11:05;17.00;99.90
21759;DHT22;11041;50.854;20.580;2023-07-31T00:13:31;16.90;99.90
21759;DHT22;11041;50.854;20.580;2023-07-31T00:15:58;16.90;99.90
21759;DHT22;11041;50.854;20.580;2023-07-31T00:18:25;16.80;99.90
21759;DHT22;11041;50.854;20.580;2023-07-31T00:20:51;16.80;99.90
21759;DHT22;11041;50.854;20.580;2023-07-31T00:23:17;16.80;99.90
21759;DHT22;11041;50.854;20.580;2023-07-31T00:25:44;16.80;99.90
21759;DHT22;11041;50.854;20.580;2023-07-31T00:28:10;16.80;99.90
21759;DHT22;11041;50.854;20.580;2023-07-31T00:30:36;16.60;99.90
21759;DHT22;11041;50.854;20.580;2023-07-31T00:33:02;16.60;99.90
21759;DHT22;11041;50.854;20.580;2023-07-31T00:35:29;16.60;99.90
21759;DHT22;11041;50.854;20.580;2023-07-31T00:37:57;16.60;99.90
21759;DHT22;11041;50.854;20.580;2023-07-31T00:40:24;16.50;99.90
21759;DHT22;11041;50.854;20.580;2023-07-31T00:42:50;16.50;99.90
21759;DHT22;11041;50.854;20.580;2023-07-31T00:45:16;16.50;99.90
21759;DHT22;11041;50.854;20.580;2023-07-31T00:47:43;16.50;99.90
21759;DHT22;11041;50.854;20.580;2023-07-31T00:50:09;16.40;99.90
21759;DHT22;11041;50.854;20.580;2023-07-31T00:52:36;16.40;99.90
21759;DHT22;11041;50.854;20.580;2023-07-31T00:55:03;16.40;99.90
21759;DHT22;11041;50.854;20.580;2023-07-31T00:57:31;16.40;99.90
21759;DHT22;11041;50.854;20.580;2023-07-31T00:59:59;16.30;99.90
21759;DHT22;11041;50.854;20.580;2023-07-31T01:02:26;16.30;99.90
21759;DHT22;11041;50.854;20.580;2023-07-31T01:04:52;16.30;99.90
21759;DHT22;11041;50.854;20.580;2023-07-31T01:10:30;16.20;99.90
21759;DHT22;11041;50.854;20.580;2023-07-31T01:13:03;16.20;99.90
21759;DHT22;11041;50.854;20.580;2023-07-31T01:15:30;16.10;99.90
21759;DHT22;11041;50.854;20.580;2023-07-31T01:17:57;16.10;99.90
21759;DHT22;11041;50.854;20.580;2023-07-31T01:20:24;16.10;99.90
21759;DHT22;11041;50.854;20.580;2023-07-31T01:31:10;15.90;99.90
21759;DHT22;11041;50.854;20.580;2023-07-31T01:33:41;15.90;99.90
21759;DHT22;11041;50.854;20.580;2023-07-31T01:36:07;15.90;99.90
21759;DHT22;11041;50.854;20.580;2023-07-31T01:38:34;15.80;99.90
21759;DHT22;11041;50.854;20.580;2023-07-31T01:41:00;15.80;99.90
21759;DHT22;11041;50.854;20.580;2023-07-31T01:43:27;15.70;99.90
21759;DHT22;11041;50.854;20.580;2023-07-31T01:45:53;15.70;99.90
21759;DHT22;11041;50.854;20.580;2023-07-31T01:48:20;15.70;99.90
21759;DHT22;11041;50.854;20.580;2023-07-31T01:50:46;15.70;99.90
21759;DHT22;11041;50.854;20.580;2023-07-31T01:53:12;15.70;99.90
21759;DHT22;11041;50.854;20.580;2023-07-31T01:55:39;15.70;99.90
21759;DHT22;11041;50.854;20.580;2023-07-31T01:58:05;15.70;99.90
21759;DHT22;11041;50.854;20.580;2023-07-31T02:00:32;15.70;99.90
21759;DHT22;11041;50.854;20.580;2023-07-31T02:02:59;15.60;99.90
21759;DHT22;11041;50.854;20.580;2023-07-31T02:05:25;15.60;99.90
21759;DHT22;11041;50.854;20.580;2023-07-31T02:07:52;15.50;99.90
21759;DHT22;11041;50.854;20.580;2023-07-31T02:10:19;15.60;99.90
21759;DHT22;11041;50.854;20.580;2023-07-31T02:12:45;15.50;99.90
21759;DHT22;11041;50.854;20.580;2023-07-31T02:15:11;15.60;99.90
21759;DHT22;11041;50.854;20.580;2023-07-31T02:17:37;15.50;99.90
21759;DHT22;11041;50.854;20.580;2023-07-31T02:20:04;15.50;99.90
21759;DHT22;11041;50.854;20.580;2023-07-31T02:22:31;15.50;99.90
21759;DHT22;11041;50.854;20.580;2023-07-31T02:24:57;15.50;99.90
21759;DHT22;11041;50.854;20.580;2023-07-31T02:27:24;15.50;99.90
21759;DHT22;11041;50.854;20.580;2023-07-31T02:29:53;15.60;99.90
21759;DHT22;11041;50.854;20.580;2023-07-31T02:32:20;15.60;99.90
21759;DHT22;11041;50.854;20.580;2023-07-31T02:34:46;15.60;99.90
21759;DHT22;11041;50.854;20.580;2023-07-31T02:37:13;15.60;99.90
21759;DHT22;11041;50.854;20.580;2023-07-31T02:39:39;15.60;99.90
21759;DHT22;11041;50.854;20.580;2023-07-31T02:42:05;15.60;99.90
21759;DHT22;11041;50.854;20.580;2023-07-31T02:44:31;15.70;99.90
21759;DHT22;11041;50.854;20.580;2023-07-31T02:46:58;15.70;99.90
21759;DHT22;11041;50.854;20.580;2023-07-31T02:49:24;15.80;99.90
21759;DHT22;11041;50.854;20.580;2023-07-31T02:51:50;15.80;99.90
21759;DHT22;11041;50.854;20.580;2023-07-31T02:54:16;15.80;99.90
21759;DHT22;11041;50.854;20.580;2023-07-31T02:56:43;15.90;99.90
21759;DHT22;11041;50.854;20.580;2023-07-31T02:59:09;15.90;99.90
21759;DHT22;11041;50.854;20.580;2023-07-31T03:01:36;15.90;99.90
21759;DHT22;11041;50.854;20.580;2023-07-31T03:04:02;15.90;99.90
21759;DHT22;11041;50.854;20.580;2023-07-31T03:06:28;15.90;99.90
21759;DHT22;11041;50.854;20.580;2023-07-31T03:08:54;16.00;99.90
21759;DHT22;11041;50.854;20.580;2023-07-31T03:11:21;16.00;99.90
21759;DHT22;11041;50.854;20.580;2023-07-31T03:13:47;16.10;99.90
21759;DHT22;11041;50.854;20.580;2023-07-31T03:16:14;16.10;99.90
21759;DHT22;11041;50.854;20.580;2023-07-31T03:18:40;16.10;99.90
21759;DHT22;11041;50.854;20.580;2023-07-31T03:21:06;16.10;99.90
21759;DHT22;11041;50.854;20.580;2023-07-31T03:23:32;16.10;99.90
21759;DHT22;11041;50.854;20.580;2023-07-31T03:26:02;16.20;99.90
21759;DHT22;11041;50.854;20.580;2023-07-31T03:28:31;16.20;99.90
21759;DHT22;11041;50.854;20.580;2023-07-31T03:30:57;16.20;99.90
21759;DHT22;11041;50.854;20.580;2023-07-31T03:33:24;16.20;99.90
21759;DHT22;11041;50.854;20.580;2023-07-31T03:35:51;16.20;99.90
21759;DHT22;11041;50.854;20.580;2023-07-31T03:38:18;16.20;99.90
21759;DHT22;11041;50.854;20.580;2023-07-31T03:40:45;16.20;99.90
21759;DHT22;11041;50.854;20.580;2023-07-31T03:43:12;16.20;99.90
21759;DHT22;11041;50.854;20.580;2023-07-31T03:45:38;16.30;99.90
21759;DHT22;11041;50.854;20.580;2023-07-31T03:48:05;16.30;99.90
21759;DHT22;11041;50.854;20.580;2023-07-31T03:50:31;16.30;99.90
21759;DHT22;11041;50.854;20.580;2023-07-31T03:52:58;16.30;99.90
21759;DHT22;11041;50.854;20.580;2023-07-31T03:55:24;16.40;99.90
21759;DHT22;11041;50.854;20.580;2023-07-31T03:57:50;16.40;99.90
21759;DHT22;11041;50.854;20.580;2023-07-31T04:00:17;16.40;99.90
21759;DHT22;11041;50.854;20.580;2023-07-31T04:02:43;16.50;99.90
21759;DHT22;11041;50.854;20.580;2023-07-31T04:05:10;16.50;99.90
21759;DHT22;11041;50.854;20.580;2023-07-31T04:07:37;16.60;99.90
21759;DHT22;11041;50.854;20.580;2023-07-31T04:10:03;16.60;99.90
21759;DHT22;11041;50.854;20.580;2023-07-31T04:12:30;16.60;99.90
21759;DHT22;11041;50.854;20.580;2023-07-31T04:14:56;16.60;99.90
21759;DHT22;11041;50.854;20.580;2023-07-31T04:17:22;16.70;99.90
21759;DHT22;11041;50.854;20.580;2023-07-31T04:19:49;16.70;99.90
21759;DHT22;11041;50.854;20.580;2023-07-31T04:22:15;16.70;99.90
21759;DHT22;11041;50.854;20.580;2023-07-31T04:24:41;16.70;99.90
21759;DHT22;11041;50.854;20.580;2023-07-31T04:27:07;16.70;99.90
21759;DHT22;11041;50.854;20.580;2023-07-31T04:29:34;16.70;99.90
21759;DHT22;11041;50.854;20.580;2023-07-31T04:32:01;16.80;99.90
21759;DHT22;11041;50.854;20.580;2023-07-31T04:34:30;16.90;99.90
21759;DHT22;11041;50.854;20.580;2023-07-31T04:37:00;16.90;99.90
21759;DHT22;11041;50.854;20.580;2023-07-31T04:39:27;16.90;99.90
21759;DHT22;11041;50.854;20.580;2023-07-31T04:41:53;16.80;99.90
21759;DHT22;11041;50.854;20.580;2023-07-31T04:44:19;16.70;99.90
21759;DHT22;11041;50.854;20.580;2023-07-31T04:46:46;16.70;99.90
21759;DHT22;11041;50.854;20.580;2023-07-31T04:49:12;16.70;99.90
21759;DHT22;11041;50.854;20.580;2023-07-31T04:51:38;16.70;99.90
21759;DHT22;11041;50.854;20.580;2023-07-31T04:54:05;16.80;99.90
21759;DHT22;11041;50.854;20.580;2023-07-31T04:56:31;16.90;99.90
21759;DHT22;11041;50.854;20.580;2023-07-31T04:58:57;16.90;99.90
21759;DHT22;11041;50.854;20.580;2023-07-31T05:01:23;16.90;99.90
21759;DHT22;11041;50.854;20.580;2023-07-31T05:03:51;17.10;99.90
21759;DHT22;11041;50.854;20.580;2023-07-31T05:06:17;17.10;99.90
21759;DHT22;11041;50.854;20.580;2023-07-31T05:08:44;17.20;99.90
21759;DHT22;11041;50.854;20.580;2023-07-31T05:11:10;17.30;99.90
21759;DHT22;11041;50.854;20.580;2023-07-31T05:13:36;17.20;99.90
21759;DHT22;11041;50.854;20.580;2023-07-31T05:16:02;17.40;99.90
21759;DHT22;11041;50.854;20.580;2023-07-31T05:18:29;17.50;99.90
21759;DHT22;11041;50.854;20.580;2023-07-31T05:20:55;17.50;99.90
21759;DHT22;11041;50.854;20.580;2023-07-31T05:23:22;17.40;99.90
21759;DHT22;11041;50.854;20.580;2023-07-31T05:25:48;17.50;99.90
21759;DHT22;11041;50.854;20.580;2023-07-31T05:28:15;17.50;99.90
21759;DHT22;11041;50.854;20.580;2023-07-31T05:30:41;17.60;99.90
21759;DHT22;11041;50.854;20.580;2023-07-31T05:33:07;17.50;99.90
21759;DHT22;11041;50.854;20.580;2023-07-31T05:35:33;17.60;99.90
21759;DHT22;11041;50.854;20.580;2023-07-31T05:38:00;17.50;99.90
21759;DHT22;11041;50.854;20.580;2023-07-31T05:40:26;17.60;99.90
21759;DHT22;11041;50.854;20.580;2023-07-31T05:42:53;17.70;99.90
21759;DHT22;11041;50.854;20.580;2023-07-31T05:45:19;17.80;99.90
21759;DHT22;11041;50.854;20.580;2023-07-31T05:47:45;17.90;99.90
21759;DHT22;11041;50.854;20.580;2023-07-31T05:50:11;17.90;99.90
21759;DHT22;11041;50.854;20.580;2023-07-31T05:52:39;18.00;99.90
21759;DHT22;11041;50.854;20.580;2023-07-31T05:55:05;18.00;99.90
21759;DHT22;11041;50.854;20.580;2023-07-31T05:57:32;17.90;99.90
21759;DHT22;11041;50.854;20.580;2023-07-31T05:59:58;17.90;99.90
21759;DHT22;11041;50.854;20.580;2023-07-31T06:02:24;17.90;99.90
21759;DHT22;11041;50.854;20.580;2023-07-31T06:04:51;18.00;99.90
21759;DHT22;11041;50.854;20.580;2023-07-31T06:07:17;18.10;99.90
21759;DHT22;11041;50.854;20.580;2023-07-31T06:09:46;18.10;99.90
21759;DHT22;11041;50.854;20.580;2023-07-31T06:12:13;17.90;99.90
21759;DHT22;11041;50.854;20.580;2023-07-31T06:14:39;17.90;99.90
21759;DHT22;11041;50.854;20.580;2023-07-31T06:17:06;18.00;99.90
21759;DHT22;11041;50.854;20.580;2023-07-31T06:19:32;17.90;99.90
21759;DHT22;11041;50.854;20.580;2023-07-31T06:21:59;17.80;99.90
21759;DHT22;11041;50.854;20.580;2023-07-31T06:24:25;17.80;99.90
21759;DHT22;11041;50.854;20.580;2023-07-31T06:26:51;18.00;99.90
21759;DHT22;11041;50.854;20.580;2023-07-31T06:29:17;18.00;99.90
21759;DHT22;11041;50.854;20.580;2023-07-31T06:31:44;17.90;99.90
21759;DHT22;11041;50.854;20.580;2023-07-31T06:34:10;17.90;99.90
21759;DHT22;11041;50.854;20.580;2023-07-31T06:36:37;17.90;99.90
21759;DHT22;11041;50.854;20.580;2023-07-31T06:39:03;17.80;99.90
21759;DHT22;11041;50.854;20.580;2023-07-31T06:41:29;18.00;99.90
21759;DHT22;11041;50.854;20.580;2023-07-31T06:43:55;17.90;99.90
21759;DHT22;11041;50.854;20.580;2023-07-31T06:46:22;18.10;99.90
21759;DHT22;11041;50.854;20.580;2023-07-31T06:48:48;18.20;99.90
21759;DHT22;11041;50.854;20.580;2023-07-31T06:51:16;18.30;99.90
21759;DHT22;11041;50.854;20.580;2023-07-31T06:53:42;18.30;99.90
21759;DHT22;11041;50.854;20.580;2023-07-31T06:56:11;18.30;99.90
21759;DHT22;11041;50.854;20.580;2023-07-31T06:58:37;18.40;99.90
21759;DHT22;11041;50.854;20.580;2023-07-31T07:01:03;18.30;99.90
21759;DHT22;11041;50.854;20.580;2023-07-31T07:03:29;18.40;99.90
21759;DHT22;11041;50.854;20.580;2023-07-31T07:05:56;18.60;99.90
21759;DHT22;11041;50.854;20.580;2023-07-31T07:08:22;18.40;99.90
21759;DHT22;11041;50.854;20.580;2023-07-31T07:10:49;18.40;99.90
21759;DHT22;11041;50.854;20.580;2023-07-31T07:13:16;18.50;99.90
21759;DHT22;11041;50.854;20.580;2023-07-31T07:15:48;18.60;99.90
21759;DHT22;11041;50.854;20.580;2023-07-31T07:18:15;18.80;99.90
21759;DHT22;11041;50.854;20.580;2023-07-31T07:20:50;19.00;99.90
21759;DHT22;11041;50.854;20.580;2023-07-31T07:23:17;19.10;99.90
21759;DHT22;11041;50.854;20.580;2023-07-31T07:25:44;19.00;99.90
21759;DHT22;11041;50.854;20.580;2023-07-31T07:28:11;19.00;99.90
21759;DHT22;11041;50.854;20.580;2023-07-31T07:30:38;19.00;99.90
21759;DHT22;11041;50.854;20.580;2023-07-31T07:33:04;19.00;99.90
21759;DHT22;11041;50.854;20.580;2023-07-31T07:35:35;19.10;99.90
21759;DHT22;11041;50.854;20.580;2023-07-31T07:38:02;19.00;99.90
21759;DHT22;11041;50.854;20.580;2023-07-31T07:40:29;19.20;99.90
21759;DHT22;11041;50.854;20.580;2023-07-31T07:42:55;19.30;99.90
21759;DHT22;11041;50.854;20.580;2023-07-31T07:45:22;19.50;99.90
21759;DHT22;11041;50.854;20.580;2023-07-31T07:47:47;19.40;99.90
21759;DHT22;11041;50.854;20.580;2023-07-31T07:50:14;19.40;99.90
21759;DHT22;11041;50.854;20.580;2023-07-31T07:52:40;19.50;99.90
21759;DHT22;11041;50.854;20.580;2023-07-31T07:55:06;19.60;99.90
21759;DHT22;11041;50.854;20.580;2023-07-31T07:57:33;19.70;99.90
21759;DHT22;11041;50.854;20.580;2023-07-31T07:59:59;19.90;99.90
21759;DHT22;11041;50.854;20.580;2023-07-31T08:02:25;20.00;99.90
21759;DHT22;11041;50.854;20.580;2023-07-31T08:04:51;20.00;99.90
21759;DHT22;11041;50.854;20.580;2023-07-31T08:07:17;19.90;99.90
21759;DHT22;11041;50.854;20.580;2023-07-31T08:09:44;20.00;99.90
21759;DHT22;11041;50.854;20.580;2023-07-31T08:12:10;20.10;99.90
21759;DHT22;11041;50.854;20.580;2023-07-31T08:14:36;20.20;99.90
21759;DHT22;11041;50.854;20.580;2023-07-31T08:17:03;20.10;99.90
21759;DHT22;11041;50.854;20.580;2023-07-31T08:19:55;20.20;99.90
21759;DHT22;11041;50.854;20.580;2023-07-31T08:22:48;20.20;99.90
21759;DHT22;11041;50.854;20.580;2023-07-31T08:25:39;20.10;99.90
21759;DHT22;11041;50.854;20.580;2023-07-31T09:32:18;21.20;99.90
21759;DHT22;11041;50.854;20.580;2023-07-31T09:34:44;21.10;99.90
21759;DHT22;11041;50.854;20.580;2023-07-31T09:37:11;21.20;99.90
21759;DHT22;11041;50.854;20.580;2023-07-31T09:39:47;21.40;99.90
21759;DHT22;11041;50.854;20.580;2023-07-31T09:42:26;21.40;99.90
21759;DHT22;11041;50.854;20.580;2023-07-31T09:45:06;21.40;99.90
21759;DHT22;11041;50.854;20.580;2023-07-31T09:47:34;21.40;99.90
21759;DHT22;11041;50.854;20.580;2023-07-31T09:50:01;21.30;99.90
21759;DHT22;11041;50.854;20.580;2023-07-31T09:52:27;21.40;99.90
21759;DHT22;11041;50.854;20.580;2023-07-31T09:54:53;21.30;99.90
21759;DHT22;11041;50.854;20.580;2023-07-31T10:00:55;21.40;99.90
21759;DHT22;11041;50.854;20.580;2023-07-31T10:03:26;21.30;99.90
21759;DHT22;11041;50.854;20.580;2023-07-31T10:05:57;21.40;99.90
21759;DHT22;11041;50.854;20.580;2023-07-31T10:08:28;21.70;99.90
21759;DHT22;11041;50.854;20.580;2023-07-31T10:10:59;21.70;99.90
21759;DHT22;11041;50.854;20.580;2023-07-31T10:13:29;21.50;99.90
21759;DHT22;11041;50.854;20.580;2023-07-31T10:15:59;21.60;99.90
21759;DHT22;11041;50.854;20.580;2023-07-31T10:18:27;21.70;99.90
21759;DHT22;11041;50.854;20.580;2023-07-31T10:20:55;21.80;99.90
21759;DHT22;11041;50.854;20.580;2023-07-31T10:23:23;21.80;99.90
21759;DHT22;11041;50.854;20.580;2023-07-31T10:25:53;22.00;99.90
21759;DHT22;11041;50.854;20.580;2023-07-31T10:28:21;22.10;99.90
21759;DHT22;11041;50.854;20.580;2023-07-31T10:30:49;22.40;99.90
21759;DHT22;11041;50.854;20.580;2023-07-31T10:33:18;22.60;99.90
21759;DHT22;11041;50.854;20.580;2023-07-31T10:35:47;22.30;99.90
21759;DHT22;11041;50.854;20.580;2023-07-31T10:38:14;22.20;99.90
21759;DHT22;11041;50.854;20.580;2023-07-31T10:40:42;22.30;99.90
21759;DHT22;11041;50.854;20.580;2023-07-31T10:43:08;22.10;99.90
21759;DHT22;11041;50.854;20.580;2023-07-31T10:45:38;21.90;99.90
21759;DHT22;11041;50.854;20.580;2023-07-31T10:48:15;21.90;99.90
21759;DHT22;11041;50.854;20.580;2023-07-31T10:50:51;21.80;99.90
21759;DHT22;11041;50.854;20.580;2023-07-31T10:53:26;22.10;99.90
21759;DHT22;11041;50.854;20.580;2023-07-31T10:56:07;22.40;99.90
21759;DHT22;11041;50.854;20.580;2023-07-31T10:58:36;22.70;99.90
21759;DHT22;11041;50.854;20.580;2023-07-31T11:01:05;22.90;99.90
21759;DHT22;11041;50.854;20.580;2023-07-31T11:06:09;22.50;99.90
21759;DHT22;11041;50.854;20.580;2023-07-31T11:08:41;22.40;99.90
21759;DHT22;11041;50.854;20.580;2023-07-31T11:11:17;22.70;99.90
21759;DHT22;11041;50.854;20.580;2023-07-31T11:13:52;22.80;99.90
21759;DHT22;11041;50.854;20.580;2023-07-31T11:16:22;22.90;99.90
21759;DHT22;11041;50.854;20.580;2023-07-31T11:18:50;23.10;99.90
21759;DHT22;11041;50.854;20.580;2023-07-31T11:21:21;23.40;99.90
21759;DHT22;11041;50.854;20.580;2023-07-31T11:23:53;23.20;99.90
21759;DHT22;11041;50.854;20.580;2023-07-31T11:26:24;23.50;99.90
21759;DHT22;11041;50.854;20.580;2023-07-31T11:28:51;23.80;99.90
21759;DHT22;11041;50.854;20.580;2023-07-31T11:31:18;24.10;99.90
21759;DHT22;11041;50.854;20.580;2023-07-31T13:01:41;25.60;99.90
21759;DHT22;11041;50.854;20.580;2023-07-31T13:04:08;26.10;99.90
21759;DHT22;11041;50.854;20.580;2023-07-31T13:06:35;26.30;99.90
21759;DHT22;11041;50.854;20.580;2023-07-31T13:09:01;25.90;99.90
21759;DHT22;11041;50.854;20.580;2023-07-31T13:11:28;26.20;99.90
21759;DHT22;11041;50.854;20.580;2023-07-31T13:13:54;26.30;99.80
21759;DHT22;11041;50.854;20.580;2023-07-31T13:16:21;26.50;99.90
21759;DHT22;11041;50.854;20.580;2023-07-31T13:18:48;25.90;99.90
21759;DHT22;11041;50.854;20.580;2023-07-31T13:21:14;26.20;99.80
21759;DHT22;11041;50.854;20.580;2023-07-31T13:23:40;26.10;99.90
21759;DHT22;11041;50.854;20.580;2023-07-31T13:26:07;26.60;99.90
21759;DHT22;11041;50.854;20.580;2023-07-31T13:28:33;26.80;99.90
21759;DHT22;11041;50.854;20.580;2023-07-31T13:30:59;27.20;99.90
21759;DHT22;11041;50.854;20.580;2023-07-31T13:33:26;27.60;97.70
21759;DHT22;11041;50.854;20.580;2023-07-31T13:35:53;27.60;98.10
21759;DHT22;11041;50.854;20.580;2023-07-31T13:38:19;27.00;98.70
21759;DHT22;11041;50.854;20.580;2023-07-31T13:40:46;26.80;99.20
21759;DHT22;11041;50.854;20.580;2023-07-31T13:43:12;26.50;98.70
21759;DHT22;11041;50.854;20.580;2023-07-31T13:45:39;26.90;98.90
21759;DHT22;11041;50.854;20.580;2023-07-31T13:48:05;27.30;99.90
21759;DHT22;11041;50.854;20.580;2023-07-31T13:50:32;27.50;97.40
21759;DHT22;11041;50.854;20.580;2023-07-31T13:52:58;27.50;96.60
21759;DHT22;11041;50.854;20.580;2023-07-31T13:55:25;27.80;96.70
21759;DHT22;11041;50.854;20.580;2023-07-31T13:57:51;27.90;96.60
21759;DHT22;11041;50.854;20.580;2023-07-31T14:00:19;28.10;94.90
21759;DHT22;11041;50.854;20.580;2023-07-31T14:02:46;28.20;95.40
21759;DHT22;11041;50.854;20.580;2023-07-31T14:05:12;27.80;94.30
21759;DHT22;11041;50.854;20.580;2023-07-31T14:07:39;28.00;95.70
21759;DHT22;11041;50.854;20.580;2023-07-31T14:10:05;28.10;95.30
21759;DHT22;11041;50.854;20.580;2023-07-31T14:12:32;28.30;94.60
21759;DHT22;11041;50.854;20.580;2023-07-31T14:14:59;28.30;94.80
21759;DHT22;11041;50.854;20.580;2023-07-31T14:17:25;28.40;94.30
21759;DHT22;11041;50.854;20.580;2023-07-31T14:19:52;28.40;93.10
21759;DHT22;11041;50.854;20.580;2023-07-31T14:22:29;29.00;93.40
21759;DHT22;11041;50.854;20.580;2023-07-31T14:24:56;29.30;92.80
21759;DHT22;11041;50.854;20.580;2023-07-31T14:27:23;29.40;91.90
21759;DHT22;11041;50.854;20.580;2023-07-31T14:29:49;28.90;92.70
21759;DHT22;11041;50.854;20.580;2023-07-31T14:32:16;28.60;91.80
21759;DHT22;11041;50.854;20.580;2023-07-31T14:34:42;29.20;91.00
21759;DHT22;11041;50.854;20.580;2023-07-31T14:37:09;28.70;91.20
21759;DHT22;11041;50.854;20.580;2023-07-31T14:39:35;28.50;92.50
21759;DHT22;11041;50.854;20.580;2023-07-31T14:42:02;29.00;91.50
21759;DHT22;11041;50.854;20.580;2023-07-31T14:44:28;29.20;91.30
21759;DHT22;11041;50.854;20.580;2023-07-31T14:46:55;29.30;91.20
21759;DHT22;11041;50.854;20.580;2023-07-31T14:49:21;28.90;91.90
21759;DHT22;11041;50.854;20.580;2023-07-31T14:51:48;28.50;91.00
21759;DHT22;11041;50.854;20.580;2023-07-31T14:54:15;28.20;92.00
21759;DHT22;11041;50.854;20.580;2023-07-31T14:56:41;28.80;90.70
21759;DHT22;11041;50.854;20.580;2023-07-31T14:59:08;27.60;91.70
21759;DHT22;11041;50.854;20.580;2023-07-31T15:01:36;27.40;92.80
21759;DHT22;11041;50.854;20.580;2023-07-31T15:04:03;28.00;92.50
21759;DHT22;11041;50.854;20.580;2023-07-31T15:06:30;28.40;91.20
21759;DHT22;11041;50.854;20.580;2023-07-31T15:08:56;28.30;91.90
21759;DHT22;11041;50.854;20.580;2023-07-31T15:11:23;28.90;91.30
21759;DHT22;11041;50.854;20.580;2023-07-31T15:13:50;28.20;92.30
21759;DHT22;11041;50.854;20.580;2023-07-31T15:16:16;28.30;91.30
21759;DHT22;11041;50.854;20.580;2023-07-31T15:18:43;27.90;90.40
21759;DHT22;11041;50.854;20.580;2023-07-31T15:21:09;27.60;91.10
21759;DHT22;11041;50.854;20.580;2023-07-31T15:23:36;27.40;91.10
21759;DHT22;11041;50.854;20.580;2023-07-31T15:26:04;27.00;92.10
21759;DHT22;11041;50.854;20.580;2023-07-31T15:28:31;26.60;92.50
21759;DHT22;11041;50.854;20.580;2023-07-31T15:30:58;26.50;92.50
21759;DHT22;11041;50.854;20.580;2023-07-31T15:33:25;26.60;94.10
21759;DHT22;11041;50.854;20.580;2023-07-31T15:35:51;26.80;92.80
21759;DHT22;11041;50.854;20.580;2023-07-31T15:38:21;26.80;92.90
21759;DHT22;11041;50.854;20.580;2023-07-31T15:40:48;26.50;93.20
21759;DHT22;11041;50.854;20.580;2023-07-31T15:43:16;26.50;93.50
21759;DHT22;11041;50.854;20.580;2023-07-31T15:45:46;26.20;93.80
21759;DHT22;11041;50.854;20.580;2023-07-31T15:48:12;26.10;94.40
21759;DHT22;11041;50.854;20.580;2023-07-31T15:50:39;25.90;94.40
21759;DHT22;11041;50.854;20.580;2023-07-31T15:53:06;25.60;94.10
21759;DHT22;11041;50.854;20.580;2023-07-31T15:55:33;25.50;94.90
21759;DHT22;11041;50.854;20.580;2023-07-31T15:58:00;25.40;95.60
21759;DHT22;11041;50.854;20.580;2023-07-31T16:00:26;25.30;95.70
21759;DHT22;11041;50.854;20.580;2023-07-31T16:02:53;25.00;96.60
21759;DHT22;11041;50.854;20.580;2023-07-31T16:05:20;25.00;96.40
21759;DHT22;11041;50.854;20.580;2023-07-31T16:07:46;25.00;97.50
21759;DHT22;11041;50.854;20.580;2023-07-31T16:10:13;25.00;97.60
21759;DHT22;11041;50.854;20.580;2023-07-31T16:12:40;24.90;96.20
21759;DHT22;11041;50.854;20.580;2023-07-31T16:15:07;24.80;97.30
21759;DHT22;11041;50.854;20.580;2023-07-31T16:17:34;24.90;97.20
21759;DHT22;11041;50.854;20.580;2023-07-31T16:20:01;24.70;97.40
21759;DHT22;11041;50.854;20.580;2023-07-31T16:22:27;24.60;97.40
21759;DHT22;11041;50.854;20.580;2023-07-31T16:24:54;24.70;97.50
21759;DHT22;11041;50.854;20.580;2023-07-31T16:27:20;24.40;98.00
21759;DHT22;11041;50.854;20.580;2023-07-31T16:29:49;24.40;98.90
21759;DHT22;11041;50.854;20.580;2023-07-31T16:32:16;24.60;98.50
21759;DHT22;11041;50.854;20.580;2023-07-31T16:34:42;24.70;98.40
21759;DHT22;11041;50.854;20.580;2023-07-31T16:37:09;24.80;97.90
21759;DHT22;11041;50.854;20.580;2023-07-31T16:39:36;24.70;98.60
21759;DHT22;11041;50.854;20.580;2023-07-31T16:42:04;24.60;98.50
21759;DHT22;11041;50.854;20.580;2023-07-31T16:44:33;24.60;98.20
21759;DHT22;11041;50.854;20.580;2023-07-31T16:47:00;24.40;98.70
21759;DHT22;11041;50.854;20.580;2023-07-31T16:49:27;24.30;99.20
21759;DHT22;11041;50.854;20.580;2023-07-31T16:51:54;24.20;99.70
21759;DHT22;11041;50.854;20.580;2023-07-31T16:54:21;24.10;99.20
21759;DHT22;11041;50.854;20.580;2023-07-31T16:56:47;24.00;99.90
21759;DHT22;11041;50.854;20.580;2023-07-31T16:59:19;23.80;99.90
21759;DHT22;11041;50.854;20.580;2023-07-31T17:01:47;23.80;99.90
21759;DHT22;11041;50.854;20.580;2023-07-31T17:04:14;23.80;99.90
21759;DHT22;11041;50.854;20.580;2023-07-31T17:06:40;23.70;99.90
21759;DHT22;11041;50.854;20.580;2023-07-31T17:09:08;23.60;99.90
21759;DHT22;11041;50.854;20.580;2023-07-31T17:11:35;23.50;99.90
21759;DHT22;11041;50.854;20.580;2023-07-31T17:14:04;23.40;99.90
21759;DHT22;11041;50.854;20.580;2023-07-31T17:16:34;23.30;99.90
21759;DHT22;11041;50.854;20.580;2023-07-31T17:19:02;23.30;99.90
21759;DHT22;11041;50.854;20.580;2023-07-31T17:21:29;23.20;99.90
21759;DHT22;11041;50.854;20.580;2023-07-31T17:23:56;23.20;99.90
21759;DHT22;11041;50.854;20.580;2023-07-31T17:26:22;23.10;99.90
21759;DHT22;11041;50.854;20.580;2023-07-31T17:28:50;23.00;99.90
21759;DHT22;11041;50.854;20.580;2023-07-31T17:31:16;23.00;99.90
21759;DHT22;11041;50.854;20.580;2023-07-31T17:33:43;23.00;99.90
21759;DHT22;11041;50.854;20.580;2023-07-31T17:36:09;22.90;99.90
21759;DHT22;11041;50.854;20.580;2023-07-31T17:38:36;22.90;99.90
21759;DHT22;11041;50.854;20.580;2023-07-31T17:41:03;22.90;99.90
21759;DHT22;11041;50.854;20.580;2023-07-31T17:43:29;22.80;99.90
21759;DHT22;11041;50.854;20.580;2023-07-31T17:45:55;22.70;99.90
21759;DHT22;11041;50.854;20.580;2023-07-31T17:48:22;22.70;99.90
21759;DHT22;11041;50.854;20.580;2023-07-31T17:50:50;22.60;99.90
21759;DHT22;11041;50.854;20.580;2023-07-31T17:53:19;22.30;99.90
21759;DHT22;11041;50.854;20.580;2023-07-31T17:55:47;22.40;99.90
21759;DHT22;11041;50.854;20.580;2023-07-31T17:58:14;22.30;99.90
21759;DHT22;11041;50.854;20.580;2023-07-31T18:00:41;22.10;99.90
21759;DHT22;11041;50.854;20.580;2023-07-31T18:03:08;22.00;99.90
21759;DHT22;11041;50.854;20.580;2023-07-31T18:05:37;22.00;99.90